Time;durP1;ratioP1;P1;durP2;ratioP2;P2;SDS_P1;SDS_P2;PMS_P1;PMS_P2;Temp;Humidity;BMP_temperature;BMP_pressure;BME280_temperature;BME280_humidity;BME280_pressure;Samples;Min_cycle;Max_cycle;Signal;HPM_P1;HPM_P2
2023/09/03 00:01:22;;;;;;;4.20;3.90;;;;;;;14.43;100.00;97613.84;5033299;28;20766;-60
2023/09/03 00:03:51;;;;;;;4.07;3.77;;;;;;;14.35;100.00;97601.50;5034744;28;20211;-60
2023/09/03 00:06:18;;;;;;;4.00;3.60;;;;;;;14.30;100.00;97604.75;4994935;28;20402;-60
2023/09/03 00:08:48;;;;;;;4.63;3.43;;;;;;;14.30;100.00;97606.59;5020893;28;20302;-59
2023/09/03 00:11:16;;;;;;;4.53;3.37;;;;;;;14.28;100.00;97604.13;5031809;28;20530;-58
2023/09/03 00:13:44;;;;;;;4.60;3.50;;;;;;;14.23;100.00;97603.91;5036759;28;20268;-59
2023/09/03 00:16:12;;;;;;;4.60;3.60;;;;;;;14.27;100.00;97612.31;5034188;28;20810;-61
2023/09/03 00:18:40;;;;;;;3.87;3.57;;;;;;;14.26;100.00;97613.34;5038647;28;20226;-61
2023/09/03 00:21:09;;;;;;;4.67;3.97;;;;;;;14.25;100.00;97606.38;4980305;28;21531;-59
2023/09/03 00:23:37;;;;;;;3.70;3.30;;;;;;;14.18;100.00;97601.81;4982880;28;20673;-58
2023/09/03 00:26:05;;;;;;;3.67;3.47;;;;;;;14.17;100.00;97597.50;5034130;28;20778;-61
2023/09/03 00:28:32;;;;;;;3.53;3.30;;;;;;;14.16;100.00;97598.53;5027175;28;20227;-57
2023/09/03 00:31:03;;;;;;;4.00;3.60;;;;;;;14.07;100.00;97586.38;5032864;28;20207;-57
2023/09/03 00:33:31;;;;;;;3.77;3.47;;;;;;;14.18;100.00;97595.66;4997411;28;20203;-60
2023/09/03 00:36:00;;;;;;;3.70;3.50;;;;;;;14.18;100.00;97585.81;5034901;28;20306;-60
2023/09/03 00:38:29;;;;;;;4.70;3.90;;;;;;;14.15;100.00;97599.53;5033001;28;20242;-58
2023/09/03 00:40:57;;;;;;;5.17;3.90;;;;;;;14.13;100.00;97590.13;5036285;28;20211;-59
2023/09/03 00:43:25;;;;;;;5.10;4.00;;;;;;;14.15;100.00;97593.41;5026175;28;20199;-59
2023/09/03 00:45:52;;;;;;;4.20;3.90;;;;;;;14.14;100.00;97595.22;5033256;28;20223;-59
2023/09/03 00:48:23;;;;;;;3.97;3.77;;;;;;;14.10;100.00;97606.50;4997484;28;20226;-58
2023/09/03 00:50:52;;;;;;;4.60;4.30;;;;;;;14.10;100.00;97596.66;5034742;28;20212;-59
2023/09/03 00:53:20;;;;;;;4.63;4.30;;;;;;;14.14;100.00;97607.75;5031399;28;20770;-60
2023/09/03 00:55:50;;;;;;;4.07;3.77;;;;;;;14.06;100.00;97590.06;5031108;28;20835;-57
2023/09/03 00:58:18;;;;;;;3.93;3.73;;;;;;;14.15;100.00;97602.22;4872455;28;20302;-58
2023/09/03 01:00:46;;;;;;;3.73;3.53;;;;;;;14.12;100.00;97594.59;5036378;28;20234;-55
2023/09/03 01:03:14;;;;;;;4.10;3.90;;;;;;;14.12;100.00;97596.47;5032800;28;20238;-59
2023/09/03 01:05:42;;;;;;;4.53;4.17;;;;;;;14.09;100.00;97604.84;5033987;28;20244;-58
2023/09/03 01:08:10;;;;;;;4.07;3.77;;;;;;;14.12;100.00;97607.94;5032497;28;20651;-54
2023/09/03 01:10:42;;;;;;;4.17;3.77;;;;;;;14.14;100.00;97611.22;5034872;28;20602;-58
2023/09/03 01:13:15;;;;;;;4.50;4.20;;;;;;;14.14;100.00;97611.22;5033198;28;20228;-60
2023/09/03 01:15:45;;;;;;;4.63;3.70;;;;;;;14.15;100.00;97612.88;5035921;28;20227;-59
2023/09/03 01:18:15;;;;;;;3.20;3.10;;;;;;;14.19;100.00;97621.31;4981562;28;20795;-59
2023/09/03 01:20:45;;;;;;;4.93;4.00;;;;;;;14.24;100.00;97618.06;5038057;28;20239;-59
2023/09/03 01:23:34;;;;;;;3.97;3.57;;;;;;;14.22;100.00;97620.09;5031112;28;20318;-54
2023/09/03 01:26:09;;;;;;;4.20;3.80;;;;;;;14.24;100.00;97624.19;5035170;28;20257;-56
2023/09/03 01:28:39;;;;;;;4.10;3.70;;;;;;;14.23;100.00;97622.56;4917900;28;20273;-59
2023/09/03 01:31:10;;;;;;;4.23;3.93;;;;;;;14.29;100.00;97623.63;5034121;28;20254;-55
2023/09/03 01:33:40;;;;;;;3.70;3.50;;;;;;;14.28;100.00;97635.28;5032107;28;20288;-57
2023/09/03 01:36:09;;;;;;;3.77;3.47;;;;;;;14.30;100.00;97630.59;4976931;28;20243;-57
2023/09/03 01:38:37;;;;;;;4.13;3.83;;;;;;;14.25;100.00;97630.38;5037160;28;20246;-59
2023/09/03 01:41:05;;;;;;;3.93;3.53;;;;;;;14.19;100.00;97627.44;5028157;28;20215;-58
2023/09/03 01:43:33;;;;;;;3.13;3.03;;;;;;;14.20;100.00;97620.28;5035440;28;20235;-59
2023/09/03 01:46:06;;;;;;;4.17;3.33;;;;;;;14.14;100.00;97615.75;5031342;28;20208;-59
2023/09/03 01:48:44;;;;;;;3.43;3.23;;;;;;;14.12;100.00;97623.91;5035530;28;20220;-57
2023/09/03 01:51:19;;;;;;;4.33;4.10;;;;;;;14.07;100.00;97623.69;5033810;28;20231;-58
2023/09/03 01:53:50;;;;;;;4.10;3.33;;;;;;;14.02;100.00;97626.13;5037637;28;20264;-54
2023/09/03 01:56:21;;;;;;;3.90;3.60;;;;;;;13.98;100.00;97627.53;5034428;28;20199;-58
2023/09/03 01:58:51;;;;;;;3.63;3.43;;;;;;;14.00;100.00;97618.31;5038701;28;20616;-57
2023/09/03 02:01:21;;;;;;;3.80;3.53;;;;;;;13.99;100.00;97629.16;4919892;28;20215;-57
2023/09/03 02:03:53;;;;;;;3.63;3.40;;;;;;;13.89;100.00;97630.34;5039054;28;20199;-61
2023/09/03 02:06:21;;;;;;;3.77;3.57;;;;;;;13.89;100.00;97634.84;5034479;28;20195;-58
2023/09/03 02:08:48;;;;;;;3.90;3.67;;;;;;;13.91;100.00;97635.47;5036966;28;20277;-58
2023/09/03 02:11:16;;;;;;;4.07;3.87;;;;;;;13.84;100.00;97638.09;4989192;28;20204;-58
2023/09/03 02:13:44;;;;;;;4.00;3.80;;;;;;;13.87;100.00;97636.88;5039270;28;20290;-58
2023/09/03 02:16:11;;;;;;;3.83;3.63;;;;;;;13.80;100.00;97642.13;5036748;28;20206;-58
2023/09/03 02:18:40;;;;;;;4.67;4.07;;;;;;;13.81;100.00;97635.00;5036803;28;20234;-58
2023/09/03 02:21:08;;;;;;;3.80;3.57;;;;;;;13.82;100.00;97640.09;4989525;28;20206;-55
2023/09/03 02:23:36;;;;;;;4.57;4.20;;;;;;;13.81;100.00;97638.47;5041379;28;20204;-57
2023/09/03 02:26:04;;;;;;;4.23;3.97;;;;;;;13.76;100.00;97632.91;5037259;28;20195;-59
2023/09/03 02:28:33;;;;;;;3.70;3.50;;;;;;;13.74;100.00;97632.25;5040375;28;20211;-57
2023/09/03 02:31:02;;;;;;;4.13;3.83;;;;;;;13.74;100.00;97635.75;4906324;28;20361;-60
2023/09/03 02:33:30;;;;;;;4.40;4.10;;;;;;;13.74;100.00;97626.94;5037636;28;20236;-57
2023/09/03 02:35:59;;;;;;;4.20;3.90;;;;;;;13.73;100.00;97625.28;5036426;28;20227;-55
2023/09/03 02:38:27;;;;;;;4.30;4.10;;;;;;;13.75;100.00;97633.91;5039206;28;20254;-56
2023/09/03 02:40:54;;;;;;;4.30;3.90;;;;;;;13.71;100.00;97630.00;5033734;28;20844;-58
2023/09/03 02:43:22;;;;;;;4.27;4.07;;;;;;;13.73;100.00;97635.94;5041551;28;20646;-58
2023/09/03 02:45:49;;;;;;;4.20;4.00;;;;;;;13.74;100.00;97648.25;5036576;28;20235;-60
2023/09/03 02:48:17;;;;;;;4.57;4.07;;;;;;;13.74;100.00;97648.25;5040866;28;20262;-58
2023/09/03 02:50:47;;;;;;;4.40;4.20;;;;;;;13.74;100.00;97640.25;5036889;28;20234;-56
2023/09/03 02:53:16;;;;;;;4.57;4.17;;;;;;;13.75;100.00;97644.56;5040793;28;20557;-57
2023/09/03 02:55:43;;;;;;;4.40;4.10;;;;;;;13.80;100.00;97651.97;4993175;28;20211;-58
2023/09/03 02:58:11;;;;;;;5.33;4.90;;;;;;;13.81;100.00;97643.78;5040244;28;20285;-60
2023/09/03 03:00:39;;;;;;;4.67;4.37;;;;;;;13.85;100.00;97645.06;4914216;28;20673;-57
2023/09/03 03:03:06;;;;;;;4.43;4.20;;;;;;;13.78;100.00;97630.06;5039607;28;20295;-59
2023/09/03 03:05:34;;;;;;;4.90;4.60;;;;;;;13.92;100.00;97645.09;5035884;28;20200;-59
2023/09/03 03:08:02;;;;;;;4.87;4.40;;;;;;;13.89;100.00;97637.50;5042054;28;20211;-58
2023/09/03 03:10:32;;;;;;;5.20;4.80;;;;;;;13.84;100.00;97638.09;5032426;28;20203;-57
2023/09/03 03:12:59;;;;;;;4.73;4.33;;;;;;;13.87;100.00;97644.84;5040473;28;21614;-59
2023/09/03 03:15:28;;;;;;;5.60;5.20;;;;;;;13.85;100.00;97644.22;5037226;28;20235;-59
2023/09/03 03:17:55;;;;;;;4.90;4.60;;;;;;;13.84;100.00;97648.75;5038686;28;20638;-56
2023/09/03 03:20:23;;;;;;;5.07;4.33;;;;;;;13.82;100.00;97650.75;5033501;28;20306;-59
2023/09/03 03:22:51;;;;;;;4.10;3.90;;;;;;;13.83;100.00;97644.44;5037953;28;20227;-59
2023/09/03 03:25:19;;;;;;;4.97;4.67;;;;;;;13.84;100.00;97647.91;4988809;28;20466;-59
2023/09/03 03:27:48;;;;;;;4.70;4.43;;;;;;;13.81;100.00;97654.44;5038357;28;20323;-56
2023/09/03 03:30:18;;;;;;;5.33;4.93;;;;;;;13.76;100.00;97654.19;4920736;28;22630;-59
2023/09/03 03:32:46;;;;;;;4.80;4.50;;;;;;;13.74;100.00;97659.72;5039459;28;20616;-54
2023/09/03 03:35:13;;;;;;;4.90;4.60;;;;;;;13.72;100.00;97660.94;5033374;28;20225;-59
2023/09/03 03:37:41;;;;;;;5.07;4.70;;;;;;;13.72;100.00;97668.91;5037315;28;20331;-58
2023/09/03 03:40:10;;;;;;;17.30;6.70;;;;;;;13.68;100.00;97671.16;5032783;28;20254;-57
2023/09/03 03:42:38;;;;;;;5.07;4.77;;;;;;;13.67;100.00;97669.50;5038020;28;20938;-59
2023/09/03 03:45:07;;;;;;;5.37;4.97;;;;;;;13.70;100.00;97666.47;5034627;28;20965;-58
2023/09/03 03:47:35;;;;;;;5.40;5.00;;;;;;;13.68;100.00;97668.50;5035633;28;20324;-60
2023/09/03 03:50:03;;;;;;;5.13;4.57;;;;;;;13.69;100.00;97677.28;5037173;28;20218;-60
2023/09/03 03:52:30;;;;;;;6.00;5.17;;;;;;;13.66;100.00;97673.19;5034582;28;20787;-59
2023/09/03 03:54:58;;;;;;;5.33;4.90;;;;;;;13.65;100.00;97665.38;5036527;28;20207;-59
2023/09/03 03:57:26;;;;;;;5.70;5.17;;;;;;;13.65;100.00;97681.34;5038704;28;20309;-56
2023/09/03 03:59:53;;;;;;;6.27;5.63;;;;;;;13.70;100.00;97684.25;5018504;28;20215;-56
2023/09/03 04:02:23;;;;;;;5.23;4.80;;;;;;;13.63;100.00;97692.19;5014829;28;20215;-58
2023/09/03 04:04:53;;;;;;;5.20;4.80;;;;;;;13.52;100.00;97674.91;4988842;28;20330;-59
2023/09/03 04:07:22;;;;;;;7.20;4.70;;;;;;;13.49;100.00;97691.25;4984316;28;20207;-59
2023/09/03 04:09:50;;;;;;;6.83;4.93;;;;;;;13.51;100.00;97699.03;5038576;28;20638;-58
2023/09/03 04:12:18;;;;;;;4.77;4.33;;;;;;;13.49;100.00;97696.59;5034571;28;20195;-58
2023/09/03 04:14:46;;;;;;;4.53;4.23;;;;;;;13.50;100.00;97695.56;5038748;28;20838;-60
2023/09/03 04:17:13;;;;;;;3.97;3.77;;;;;;;13.49;100.00;97693.09;5034511;28;20728;-59
2023/09/03 04:19:46;;;;;;;4.00;3.77;;;;;;;13.52;100.00;97698.88;5039989;28;20250;-60
2023/09/03 04:22:14;;;;;;;4.73;4.30;;;;;;;13.48;100.00;97705.59;5031282;28;20257;-60
2023/09/03 04:24:42;;;;;;;4.23;4.03;;;;;;;13.43;100.00;97700.81;5037891;28;20302;-61
2023/09/03 04:27:09;;;;;;;4.43;4.13;;;;;;;13.46;100.00;97695.13;5035558;28;20237;-61
2023/09/03 04:29:37;;;;;;;4.27;4.07;;;;;;;13.47;100.00;97701.28;5038345;28;20933;-60
2023/09/03 04:32:06;;;;;;;4.20;3.90;;;;;;;13.46;100.00;97702.28;5015418;28;20311;-56
2023/09/03 04:34:34;;;;;;;3.70;3.50;;;;;;;13.40;100.00;97695.00;5035223;28;20287;-57
2023/09/03 04:37:03;;;;;;;4.20;4.00;;;;;;;13.38;100.00;97702.34;5035461;28;20877;-58
2023/09/03 04:39:30;;;;;;;6.17;3.90;;;;;;;13.37;100.00;97717.53;5036693;28;20322;-56
2023/09/03 04:41:58;;;;;;;3.83;3.53;;;;;;;13.38;100.00;97715.66;4924335;28;20211;-54
2023/09/03 04:44:25;;;;;;;4.50;4.30;;;;;;;13.38;100.00;97718.31;5035970;28;20288;-59
2023/09/03 04:46:53;;;;;;;4.00;3.80;;;;;;;13.39;100.00;97720.81;5034193;28;20673;-58
2023/09/03 04:49:21;;;;;;;4.07;3.77;;;;;;;13.40;100.00;97714.47;5035248;28;20311;-59
2023/09/03 04:51:48;;;;;;;3.87;3.67;;;;;;;13.41;100.00;97710.81;5035584;28;20732;-59
2023/09/03 04:54:17;;;;;;;4.20;3.80;;;;;;;13.41;100.00;97707.31;5001242;28;20303;-58
2023/09/03 04:56:47;;;;;;;3.90;3.70;;;;;;;13.44;100.00;97725.59;5021372;28;20488;-60
2023/09/03 04:59:15;;;;;;;3.83;3.60;;;;;;;13.44;100.00;97726.41;5037003;28;20572;-57
2023/09/03 05:01:43;;;;;;;3.80;3.60;;;;;;;13.43;100.00;97729.25;5035326;28;20196;-56
2023/09/03 05:04:11;;;;;;;3.93;3.73;;;;;;;13.45;100.00;97738.72;5032188;28;20199;-58
2023/09/03 05:06:39;;;;;;;4.27;3.90;;;;;;;13.55;100.00;97738.41;5039348;28;20272;-58
2023/09/03 05:09:08;;;;;;;4.30;4.10;;;;;;;13.57;100.00;97736.38;5037797;28;20615;-56
2023/09/03 05:11:39;;;;;;;4.53;4.23;;;;;;;13.53;100.00;97728.97;5030793;28;20204;-56
2023/09/03 05:14:08;;;;;;;5.33;5.03;;;;;;;13.60;100.00;97725.34;4989624;28;20204;-57
2023/09/03 05:16:35;;;;;;;5.30;4.90;;;;;;;13.67;100.00;97719.25;4976978;28;20215;-59
2023/09/03 05:19:06;;;;;;;4.90;4.60;;;;;;;13.68;100.00;97715.59;5025888;28;20400;-57
2023/09/03 05:21:34;;;;;;;5.40;5.00;;;;;;;13.75;100.00;97719.97;5007711;28;20223;-56
2023/09/03 05:24:02;;;;;;;5.13;4.83;;;;;;;13.80;100.00;97719.38;5037067;28;20208;-56
2023/09/03 05:26:30;;;;;;;5.47;5.10;;;;;;;13.87;100.00;97724.78;5034946;28;20672;-56
2023/09/03 05:28:59;;;;;;;5.90;5.50;;;;;;;13.93;100.00;97725.84;5027250;28;20300;-57
2023/09/03 05:31:27;;;;;;;5.37;4.97;;;;;;;13.99;100.00;97722.41;4972999;28;20864;-55
2023/09/03 05:33:54;;;;;;;5.30;5.00;;;;;;;14.02;100.00;97719.38;5045412;28;20210;-57
2023/09/03 05:36:22;;;;;;;5.03;4.73;;;;;;;14.14;100.00;97723.13;4977751;28;21010;-56
2023/09/03 05:38:50;;;;;;;5.10;4.70;;;;;;;14.14;100.00;97720.47;5044845;28;20254;-55
2023/09/03 05:41:17;;;;;;;4.90;4.60;;;;;;;14.21;100.00;97728.53;4997913;28;20393;-59
2023/09/03 05:43:45;;;;;;;6.10;4.53;;;;;;;14.24;100.00;97730.00;5047788;28;20250;-60
2023/09/03 05:46:14;;;;;;;5.90;5.50;;;;;;;14.33;100.00;97736.81;4924336;28;20315;-60
2023/09/03 05:48:41;;;;;;;5.97;5.57;;;;;;;14.35;100.00;97739.25;5046410;28;20215;-57
2023/09/03 05:51:09;;;;;;;6.00;5.60;;;;;;;14.35;100.00;97739.25;4994850;28;20249;-58
2023/09/03 05:53:37;;;;;;;4.97;4.67;;;;;;;14.41;100.00;97739.31;5042091;28;20207;-57
2023/09/03 05:56:06;;;;;;;5.23;4.93;;;;;;;14.46;100.00;97734.22;5040107;28;20203;-59
2023/09/03 05:58:33;;;;;;;5.93;5.43;;;;;;;14.55;100.00;97736.72;5039271;28;20262;-59
2023/09/03 06:01:04;;;;;;;6.53;6.03;;;;;;;14.64;100.00;97740.06;5037869;28;20353;-59
2023/09/03 06:03:33;;;;;;;5.87;5.37;;;;;;;14.72;100.00;97743.44;5040210;28;20191;-56
2023/09/03 06:06:03;;;;;;;6.23;5.73;;;;;;;14.76;100.00;97746.53;5038058;28;20690;-57
2023/09/03 06:08:31;;;;;;;6.00;5.60;;;;;;;14.75;100.00;97737.72;5037668;28;20280;-57
2023/09/03 06:10:59;;;;;;;5.60;5.03;;;;;;;14.88;100.00;97738.78;5040205;28;20279;-56
2023/09/03 06:13:27;;;;;;;5.57;5.17;;;;;;;14.84;100.00;97741.03;5038389;28;20216;-56
2023/09/03 06:15:55;;;;;;;6.43;5.97;;;;;;;14.90;100.00;97750.09;4928242;28;20208;-58
2023/09/03 06:18:23;;;;;;;5.70;5.30;;;;;;;14.91;100.00;97743.72;5039095;28;20241;-60
2023/09/03 06:20:53;;;;;;;5.27;4.87;;;;;;;15.04;100.00;97743.81;4990639;28;21498;-57
2023/09/03 06:23:21;;;;;;;5.70;5.30;;;;;;;14.86;100.00;97712.31;5037389;28;20300;-56
2023/09/03 06:25:51;;;;;;;6.00;5.60;;;;;;;15.17;100.00;97748.38;5038440;28;20290;-60
2023/09/03 06:28:18;;;;;;;5.93;5.43;;;;;;;15.27;100.00;97755.97;5034899;28;20215;-59
2023/09/03 06:30:47;;;;;;;5.53;5.03;;;;;;;15.28;100.00;97757.63;4980002;28;20440;-55
2023/09/03 06:33:14;;;;;;;5.63;5.33;;;;;;;15.34;100.00;97756.84;5041538;28;20690;-59
2023/09/03 06:35:42;;;;;;;5.70;5.30;;;;;;;15.41;100.00;97756.06;5036850;28;21148;-54
2023/09/03 06:38:11;;;;;;;5.53;5.23;;;;;;;15.45;100.00;97758.09;4983403;28;20224;-59
2023/09/03 06:40:39;;;;;;;5.63;5.20;;;;;;;15.51;100.00;97758.31;5039231;28;20233;-56
2023/09/03 06:43:07;;;;;;;7.03;6.53;;;;;;;15.48;100.00;97759.56;5035743;28;20237;-55
2023/09/03 06:45:34;;;;;;;6.63;6.13;;;;;;;15.72;100.00;97760.00;5042665;28;20199;-57
2023/09/03 06:48:02;;;;;;;5.87;5.47;;;;;;;15.81;100.00;97768.66;4926119;28;20218;-56
2023/09/03 06:50:30;;;;;;;6.00;5.60;;;;;;;15.87;100.00;97768.66;5039673;28;20204;-58
2023/09/03 06:52:57;;;;;;;5.60;5.10;;;;;;;16.10;100.00;97772.00;4993899;28;20258;-57
2023/09/03 06:55:26;;;;;;;6.10;5.57;;;;;;;16.30;100.00;97777.34;5041991;28;20215;-56
2023/09/03 06:57:54;;;;;;;5.70;5.30;;;;;;;16.22;100.00;97773.03;5036098;28;20910;-58
2023/09/03 07:00:22;;;;;;;5.10;4.77;;;;;;;16.22;100.00;97767.69;5039566;28;21937;-57
2023/09/03 07:02:49;;;;;;;5.27;4.87;;;;;;;16.33;100.00;97772.44;5037379;28;20223;-56
2023/09/03 07:05:17;;;;;;;5.40;5.10;;;;;;;16.35;100.00;97772.19;5042334;28;20216;-60
2023/09/03 07:07:44;;;;;;;4.97;4.70;;;;;;;16.49;100.00;97771.19;5038138;28;20254;-54
2023/09/03 07:10:12;;;;;;;5.17;4.87;;;;;;;16.60;100.00;97772.38;5039969;28;20309;-58
2023/09/03 07:12:41;;;;;;;5.27;4.97;;;;;;;16.83;100.00;97775.63;5039650;28;20283;-59
2023/09/03 07:15:09;;;;;;;5.70;5.40;;;;;;;16.97;100.00;97774.56;5036162;28;20259;-59
2023/09/03 07:17:37;;;;;;;4.93;4.63;;;;;;;17.04;100.00;97780.75;5031841;28;20715;-59
2023/09/03 07:20:06;;;;;;;5.23;4.83;;;;;;;17.03;100.00;97779.09;5038096;28;20744;-56
2023/09/03 07:22:35;;;;;;;5.10;4.80;;;;;;;17.12;100.00;97784.22;4922905;28;20270;-58
2023/09/03 07:25:03;;;;;;;5.40;5.00;;;;;;;17.26;100.00;97791.19;4987837;28;20660;-56
2023/09/03 07:27:31;;;;;;;5.50;5.20;;;;;;;17.42;100.00;97797.91;5039579;28;20199;-56
2023/09/03 07:30:00;;;;;;;5.07;4.73;;;;;;;17.67;100.00;97791.81;5032196;28;20227;-58
2023/09/03 07:32:28;;;;;;;5.67;5.17;;;;;;;17.92;100.00;97788.38;5040285;28;20208;-60
2023/09/03 07:34:56;;;;;;;5.20;4.90;;;;;;;18.17;100.00;97774.16;4995555;28;20688;-58
2023/09/03 07:37:24;;;;;;;4.50;4.10;;;;;;;18.39;100.00;97777.31;5039669;28;20668;-58
2023/09/03 07:39:51;;;;;;;4.80;4.50;;;;;;;18.53;100.00;97786.03;5034054;28;20218;-56
2023/09/03 07:42:19;;;;;;;5.03;4.73;;;;;;;18.49;100.00;97784.84;5039872;28;20250;-58
2023/09/03 07:44:46;;;;;;;4.67;4.27;;;;;;;18.47;100.00;97786.91;5039501;28;20295;-54
2023/09/03 07:47:17;;;;;;;5.43;5.03;;;;;;;18.23;100.00;97795.59;5042294;28;20306;-55
2023/09/03 07:49:45;;;;;;;4.73;4.10;;;;;;;18.30;100.00;97786.66;5038997;28;20756;-55
2023/09/03 07:52:16;;;;;;;5.30;4.97;;;;;;;18.36;100.00;97793.81;5041154;28;20575;-59
2023/09/03 07:54:44;;;;;;;4.10;3.90;;;;;;;18.48;100.00;97797.44;4920141;28;20766;-59
2023/09/03 07:57:12;;;;;;;4.83;4.43;;;;;;;18.49;100.00;97795.56;5039540;28;20200;-58
2023/09/03 07:59:40;;;;;;;3.87;3.57;;;;;;;18.66;100.00;97793.16;5037290;28;20946;-59
2023/09/03 08:02:07;;;;;;;4.13;3.93;;;;;;;18.73;100.00;97799.25;5045392;28;20321;-60
2023/09/03 08:04:36;;;;;;;4.10;3.90;;;;;;;18.91;100.00;97817.25;4989402;28;20215;-60
2023/09/03 08:07:04;;;;;;;3.73;3.53;;;;;;;19.05;100.00;97827.91;5034029;28;20839;-60
2023/09/03 08:09:33;;;;;;;3.83;3.70;;;;;;;18.80;100.00;97829.56;4990204;28;20233;-61
2023/09/03 08:12:00;;;;;;;3.43;3.23;;;;;;;18.79;100.00;97825.25;5038897;28;20208;-61
2023/09/03 08:14:28;;;;;;;4.00;3.70;;;;;;;18.89;100.00;97822.03;5039846;28;20372;-61
2023/09/03 08:16:56;;;;;;;3.93;3.73;;;;;;;18.92;100.00;97832.31;4989923;28;20200;-60
2023/09/03 08:19:24;;;;;;;4.10;3.80;;;;;;;18.89;100.00;97835.44;4971784;28;21075;-61
2023/09/03 08:21:53;;;;;;;4.00;3.70;;;;;;;18.77;100.00;97837.22;5041340;28;20228;-61
2023/09/03 08:24:21;;;;;;;3.97;3.67;;;;;;;18.92;100.00;97851.13;5036363;28;20762;-61
2023/09/03 08:26:49;;;;;;;4.27;3.97;;;;;;;18.85;100.00;97862.97;5042800;28;20202;-59
2023/09/03 08:29:17;;;;;;;3.67;3.43;;;;;;;18.79;100.00;97862.00;4927482;28;21362;-61
2023/09/03 08:31:44;;;;;;;4.07;3.80;;;;;;;19.03;100.00;97859.53;5037261;28;20212;-59
2023/09/03 08:34:12;;;;;;;3.70;3.50;;;;;;;19.27;100.00;97857.00;5038492;28;20843;-60
2023/09/03 08:36:40;;;;;;;4.93;3.67;;;;;;;19.59;100.00;97854.16;4982214;28;20199;-61
2023/09/03 08:39:09;;;;;;;3.50;3.30;;;;;;;19.69;100.00;97848.25;5036423;28;20260;-60
2023/09/03 08:41:39;;;;;;;4.30;4.10;;;;;;;19.79;100.00;97843.13;4979031;28;20227;-61
2023/09/03 08:44:13;;;;;;;4.33;3.80;;;;;;;19.94;100.00;97842.75;5036246;28;20211;-60
2023/09/03 08:46:42;;;;;;;3.97;3.70;;;;;;;20.11;100.00;97837.56;5010523;28;20215;-59
2023/09/03 08:49:10;;;;;;;3.50;3.30;;;;;;;20.42;100.00;97832.09;5035533;28;20255;-63
2023/09/03 08:51:37;;;;;;;3.60;3.30;;;;;;;20.47;100.00;97837.63;5032538;28;20203;-61
2023/09/03 08:54:06;;;;;;;3.90;3.60;;;;;;;20.18;100.00;97840.16;5036958;28;20207;-60
2023/09/03 08:56:36;;;;;;;3.47;3.17;;;;;;;20.33;100.00;97843.22;5030807;28;20277;-57
2023/09/03 08:59:03;;;;;;;5.53;3.63;;;;;;;20.45;100.00;97837.84;5040575;28;20642;-61
2023/09/03 09:01:32;;;;;;;3.80;3.60;;;;;;;20.55;100.00;97837.28;4933899;28;20397;-61
2023/09/03 09:04:01;;;;;;;3.60;3.30;;;;;;;20.59;100.00;97845.69;5042665;28;20207;-61
2023/09/03 09:06:29;;;;;;;3.50;3.30;;;;;;;20.70;100.00;97844.91;5034714;28;20208;-61
2023/09/03 09:08:59;;;;;;;3.73;3.50;;;;;;;20.89;100.00;97855.59;5042692;28;20226;-61
2023/09/03 09:11:32;;;;;;;4.30;4.03;;;;;;;20.96;100.00;97857.13;5033126;28;20922;-61
2023/09/03 09:14:03;;;;;;;3.60;3.40;;;;;;;20.95;100.00;97838.47;5043798;28;20234;-61
2023/09/03 09:16:31;;;;;;;3.37;2.93;;;;;;;21.05;100.00;97849.50;5037229;28;20730;-59
2023/09/03 09:19:02;;;;;;;4.20;3.33;;;;;;;21.03;100.00;97850.78;5041695;28;20255;-62
2023/09/03 09:21:31;;;;;;;3.30;3.00;;;;;;;20.92;100.00;97855.13;4991688;28;20223;-60
2023/09/03 09:24:02;;;;;;;2.80;2.70;;;;;;;20.93;100.00;97854.91;5041661;28;20277;-62
2023/09/03 09:26:31;;;;;;;3.33;3.03;;;;;;;21.28;100.00;97844.31;5030601;28;20200;-60
2023/09/03 09:29:02;;;;;;;2.97;2.87;;;;;;;21.43;100.00;97830.34;5036571;28;20243;-61
2023/09/03 09:31:31;;;;;;;2.87;2.77;;;;;;;21.45;100.00;97820.13;4925648;28;20615;-61
2023/09/03 09:33:59;;;;;;;3.03;2.83;;;;;;;21.38;100.00;97844.53;5041498;28;20699;-61
2023/09/03 09:36:27;;;;;;;2.77;2.60;;;;;;;21.43;100.00;97839.22;5038079;28;20913;-60
2023/09/03 09:39:05;;;;;;;4.60;3.07;;;;;;;21.60;100.00;97842.00;5037032;28;20251;-60
2023/09/03 09:41:37;;;;;;;3.03;2.90;;;;;;;21.47;100.00;97836.88;5034731;28;20266;-61
2023/09/03 09:44:11;;;;;;;3.17;2.97;;;;;;;21.43;100.00;97843.81;5040640;28;20295;-62
2023/09/03 09:46:39;;;;;;;2.70;2.60;;;;;;;21.53;100.00;97842.13;5035261;28;20211;-61
2023/09/03 09:49:06;;;;;;;3.03;2.90;;;;;;;21.48;100.00;97831.25;5044218;28;20243;-62
2023/09/03 09:51:34;;;;;;;3.10;2.90;;;;;;;21.71;100.00;97834.13;5036067;28;20236;-60
2023/09/03 09:54:03;;;;;;;2.73;2.63;;;;;;;21.87;100.00;97841.47;5043978;28;20301;-61
2023/09/03 09:56:34;;;;;;;2.83;2.73;;;;;;;21.78;100.00;97841.03;4995605;28;20566;-60
2023/09/03 09:59:02;;;;;;;2.93;2.77;;;;;;;21.76;100.00;97826.97;5044950;28;20222;-63
2023/09/03 10:01:44;;;;;;;2.60;2.50;;;;;;;21.80;100.00;97817.34;4953341;28;20765;-58
2023/09/03 10:04:11;;;;;;;2.77;2.57;;;;;;;21.97;100.00;97830.84;5045423;28;20264;-61
2023/09/03 10:06:40;;;;;;;2.80;2.70;;;;;;;21.91;100.00;97828.31;5034511;28;20223;-60
2023/09/03 10:09:08;;;;;;;2.63;2.50;;;;;;;22.27;100.00;97840.56;5042077;28;20219;-61
2023/09/03 10:11:36;;;;;;;2.50;2.40;;;;;;;22.31;100.00;97848.97;5035195;28;20231;-61
2023/09/03 10:14:04;;;;;;;2.57;2.37;;;;;;;22.29;100.00;97844.88;5047150;28;20203;-61
2023/09/03 10:16:32;;;;;;;2.60;2.47;;;;;;;22.14;100.00;97854.34;5017278;28;20198;-59
2023/09/03 10:19:03;;;;;;;2.27;2.17;;;;;;;22.37;100.00;97853.41;5041555;28;20336;-61
2023/09/03 10:21:31;;;;;;;2.43;2.33;;;;;;;22.58;100.00;97848.38;5012674;28;20345;-60
2023/09/03 10:24:20;;;;;;;2.40;2.30;;;;;;;22.83;100.00;97860.63;5039034;28;20207;-62
2023/09/03 10:26:52;;;;;;;2.10;2.00;;;;;;;23.23;100.00;97858.75;4980828;28;20266;-62
2023/09/03 10:29:21;;;;;;;2.03;1.93;;;;;;;23.26;100.00;97863.69;5035060;28;20224;-57
2023/09/03 10:31:49;;;;;;;2.03;1.93;;;;;;;23.02;100.00;97871.16;4993204;28;20280;-62
2023/09/03 10:34:19;;;;;;;1.87;1.70;;;;;;;23.05;100.00;97871.50;4997578;28;20235;-58
2023/09/03 10:37:06;;;;;;;2.67;2.57;;;;;;;23.21;100.00;97863.59;4973678;28;20204;-60
2023/09/03 10:39:34;;;;;;;2.10;2.00;;;;;;;23.30;100.00;97864.00;5034198;28;20223;-59
2023/09/03 10:42:31;;;;;;;2.20;2.10;;;;;;;23.21;100.00;97866.28;5034919;28;20207;-59
2023/09/03 10:45:00;;;;;;;2.80;1.80;;;;;;;23.25;100.00;97856.63;4976927;28;21757;-59
2023/09/03 10:47:29;;;;;;;1.97;1.87;;;;;;;23.49;100.00;97857.25;5033653;28;20226;-58
2023/09/03 10:49:58;;;;;;;1.77;1.67;;;;;;;23.54;100.00;97854.59;5032376;28;20242;-59
2023/09/03 10:52:37;;;;;;;2.20;2.03;;;;;;;23.24;100.00;97854.97;5038741;28;20203;-60
2023/09/03 10:55:17;;;;;;;2.00;1.90;;;;;;;23.38;100.00;97848.19;5034483;28;20214;-60
2023/09/03 10:57:46;;;;;;;2.20;2.10;;;;;;;23.33;100.00;97853.53;5040191;28;20195;-60
2023/09/03 11:00:20;;;;;;;2.23;2.13;;;;;;;23.51;100.00;97857.81;5039765;28;20255;-61
2023/09/03 11:02:49;;;;;;;5.90;2.00;;;;;;;23.80;100.00;97859.47;5036672;28;20219;-59
2023/09/03 11:05:26;;;;;;;2.17;2.03;;;;;;;23.58;100.00;97854.88;5030849;28;20281;-59
2023/09/03 11:08:21;;;;;;;2.27;2.00;;;;;;;23.69;100.00;97856.66;5037798;28;20200;-61
2023/09/03 11:10:49;;;;;;;2.30;2.10;;;;;;;24.23;100.00;97852.34;4922303;28;20286;-59
2023/09/03 11:13:16;;;;;;;2.17;2.07;;;;;;;24.13;100.00;97854.97;5036198;28;20617;-61
2023/09/03 11:16:04;;;;;;;2.40;2.30;;;;;;;24.31;100.00;97859.22;4986384;28;20214;-60
2023/09/03 11:18:32;;;;;;;2.33;2.23;;;;;;;24.17;100.00;97858.81;5035747;28;20868;-56
2023/09/03 11:21:02;;;;;;;2.17;2.07;;;;;;;24.17;100.00;97853.38;5035619;28;20204;-60
2023/09/03 11:23:30;;;;;;;2.03;1.93;;;;;;;24.12;100.00;97856.06;5035811;28;20224;-58
2023/09/03 11:26:05;;;;;;;2.70;2.50;;;;;;;24.20;100.00;97854.75;5033368;28;20206;-59
2023/09/03 11:28:36;;;;;;;2.07;1.97;;;;;;;24.31;100.00;97852.97;5031376;28;20271;-58
2023/09/03 11:31:04;;;;;;;2.00;1.90;;;;;;;24.45;100.00;97853.34;4986120;28;21746;-58
2023/09/03 11:33:32;;;;;;;1.90;1.90;;;;;;;24.69;100.00;97845.69;5037699;28;20257;-60